sensor_id;sensor_type;location;lat;lon;timestamp;pressure;altitude;pressure_sealevel;temperature;humidity
12987;BME280;58897;51.960;5.582;2023-07-29T00:02:15;100479.38;;;18.50;100.00
12987;BME280;58897;51.960;5.582;2023-07-29T00:04:42;100464.88;;;18.49;100.00
12987;BME280;58897;51.960;5.582;2023-07-29T00:07:08;100467.41;;;18.44;100.00
12987;BME280;58897;51.960;5.582;2023-07-29T00:09:35;100464.91;;;18.43;100.00
12987;BME280;58897;51.960;5.582;2023-07-29T00:12:02;100449.09;;;18.45;100.00
12987;BME280;58897;51.960;5.582;2023-07-29T00:14:28;100444.53;;;18.39;100.00
12987;BME280;58897;51.960;5.582;2023-07-29T00:16:55;100437.75;;;18.41;100.00
12987;BME280;58897;51.960;5.582;2023-07-29T00:19:21;100436.13;;;18.40;100.00
12987;BME280;58897;51.960;5.582;2023-07-29T00:21:49;100441.69;;;18.27;100.00
12987;BME280;58897;51.960;5.582;2023-07-29T00:24:16;100442.78;;;18.20;100.00
12987;BME280;58897;51.960;5.582;2023-07-29T00:26:42;100435.41;;;18.20;100.00
12987;BME280;58897;51.960;5.582;2023-07-29T00:29:09;100437.38;;;18.13;100.00
12987;BME280;58897;51.960;5.582;2023-07-29T00:31:35;100437.19;;;18.08;100.00
12987;BME280;58897;51.960;5.582;2023-07-29T00:34:02;100442.25;;;18.05;100.00
12987;BME280;58897;51.960;5.582;2023-07-29T00:36:28;100453.03;;;18.00;100.00
12987;BME280;58897;51.960;5.582;2023-07-29T00:38:55;100456.56;;;18.07;100.00
12987;BME280;58897;51.960;5.582;2023-07-29T00:41:23;100444.78;;;18.06;100.00
12987;BME280;58897;51.960;5.582;2023-07-29T00:43:51;100452.31;;;18.11;100.00
12987;BME280;58897;51.960;5.582;2023-07-29T00:46:18;100444.56;;;18.08;100.00
12987;BME280;58897;51.960;5.582;2023-07-29T00:48:45;100443.34;;;18.04;100.00
12987;BME280;58897;51.960;5.582;2023-07-29T00:51:12;100448.13;;;18.08;100.00
12987;BME280;58897;51.960;5.582;2023-07-29T00:53:39;100454.00;;;18.12;100.00
12987;BME280;58897;51.960;5.582;2023-07-29T00:56:05;100455.63;;;18.19;100.00
12987;BME280;58897;51.960;5.582;2023-07-29T00:58:32;100450.81;;;18.15;100.00
12987;BME280;58897;51.960;5.582;2023-07-29T01:00:59;100459.84;;;18.15;100.00
12987;BME280;58897;51.960;5.582;2023-07-29T01:03:26;100446.19;;;18.15;100.00
12987;BME280;58897;51.960;5.582;2023-07-29T01:06:08;100417.34;;;18.19;100.00
12987;BME280;58897;51.960;5.582;2023-07-29T01:09:00;100416.81;;;18.04;100.00
12987;BME280;58897;51.960;5.582;2023-07-29T01:14:39;100439.44;;;17.86;100.00
12987;BME280;58897;51.960;5.582;2023-07-29T01:17:10;100452.84;;;17.95;100.00
12987;BME280;58897;51.960;5.582;2023-07-29T01:19:48;100452.44;;;17.91;100.00
12987;BME280;58897;51.960;5.582;2023-07-29T01:22:23;100459.34;;;18.00;100.00
12987;BME280;58897;51.960;5.582;2023-07-29T01:24:50;100447.97;;;18.03;100.00
12987;BME280;58897;51.960;5.582;2023-07-29T01:27:17;100452.34;;;18.04;100.00
12987;BME280;58897;51.960;5.582;2023-07-29T01:29:43;100454.03;;;18.05;100.00
12987;BME280;58897;51.960;5.582;2023-07-29T01:35:09;100459.41;;;17.87;100.00
12987;BME280;58897;51.960;5.582;2023-07-29T01:37:38;100461.31;;;17.86;100.00
12987;BME280;58897;51.960;5.582;2023-07-29T01:40:07;100465.72;;;17.87;100.00
12987;BME280;58897;51.960;5.582;2023-07-29T01:42:37;100454.13;;;17.92;100.00
12987;BME280;58897;51.960;5.582;2023-07-29T01:45:04;100443.81;;;17.94;100.00
12987;BME280;58897;51.960;5.582;2023-07-29T01:47:32;100446.72;;;17.99;100.00
12987;BME280;58897;51.960;5.582;2023-07-29T01:49:58;100449.28;;;17.94;100.00
12987;BME280;58897;51.960;5.582;2023-07-29T01:52:25;100451.53;;;18.04;100.00
12987;BME280;58897;51.960;5.582;2023-07-29T01:54:51;100450.69;;;18.03;100.00
12987;BME280;58897;51.960;5.582;2023-07-29T01:57:17;100453.63;;;18.02;100.00
12987;BME280;58897;51.960;5.582;2023-07-29T01:59:44;100453.19;;;18.05;100.00
12987;BME280;58897;51.960;5.582;2023-07-29T02:02:11;100453.25;;;17.98;100.00
12987;BME280;58897;51.960;5.582;2023-07-29T02:04:37;100450.72;;;17.97;100.00
12987;BME280;58897;51.960;5.582;2023-07-29T02:07:04;100451.75;;;18.02;100.00
12987;BME280;58897;51.960;5.582;2023-07-29T02:09:31;100463.75;;;18.01;100.00
12987;BME280;58897;51.960;5.582;2023-07-29T02:11:58;100462.84;;;18.07;100.00
12987;BME280;58897;51.960;5.582;2023-07-29T02:14:24;100457.22;;;18.02;100.00
12987;BME280;58897;51.960;5.582;2023-07-29T02:16:51;100458.94;;;17.97;100.00
12987;BME280;58897;51.960;5.582;2023-07-29T02:19:17;100459.34;;;18.00;100.00
12987;BME280;58897;51.960;5.582;2023-07-29T02:21:44;100457.38;;;18.07;100.00
12987;BME280;58897;51.960;5.582;2023-07-29T02:24:11;100462.22;;;18.12;100.00
12987;BME280;58897;51.960;5.582;2023-07-29T02:26:37;100453.44;;;18.03;100.00
12987;BME280;58897;51.960;5.582;2023-07-29T02:29:04;100449.00;;;18.02;100.00
12987;BME280;58897;51.960;5.582;2023-07-29T02:31:31;100456.16;;;18.03;100.00
12987;BME280;58897;51.960;5.582;2023-07-29T02:33:57;100454.47;;;18.02;100.00
12987;BME280;58897;51.960;5.582;2023-07-29T02:36:24;100438.41;;;17.87;100.00
12987;BME280;58897;51.960;5.582;2023-07-29T02:38:51;100438.50;;;17.99;100.00
12987;BME280;58897;51.960;5.582;2023-07-29T02:41:17;100432.50;;;17.91;100.00
12987;BME280;58897;51.960;5.582;2023-07-29T02:43:48;100428.06;;;17.96;100.00
12987;BME280;58897;51.960;5.582;2023-07-29T02:46:15;100432.09;;;17.87;100.00
12987;BME280;58897;51.960;5.582;2023-07-29T02:48:42;100430.22;;;17.87;100.00
12987;BME280;58897;51.960;5.582;2023-07-29T02:51:08;100423.06;;;17.86;100.00
12987;BME280;58897;51.960;5.582;2023-07-29T02:53:35;100416.13;;;17.84;100.00
12987;BME280;58897;51.960;5.582;2023-07-29T02:56:04;100414.19;;;17.91;100.00
12987;BME280;58897;51.960;5.582;2023-07-29T02:58:30;100412.19;;;17.80;100.00
12987;BME280;58897;51.960;5.582;2023-07-29T03:01:01;100415.53;;;17.82;100.00
12987;BME280;58897;51.960;5.582;2023-07-29T03:03:29;100415.53;;;17.82;100.00
12987;BME280;58897;51.960;5.582;2023-07-29T03:06:06;100414.47;;;17.83;100.00
12987;BME280;58897;51.960;5.582;2023-07-29T03:08:34;100414.50;;;17.76;100.00
12987;BME280;58897;51.960;5.582;2023-07-29T03:11:13;100407.81;;;17.72;100.00
12987;BME280;58897;51.960;5.582;2023-07-29T03:13:41;100406.13;;;17.71;100.00
12987;BME280;58897;51.960;5.582;2023-07-29T03:18:39;100400.31;;;17.61;100.00
12987;BME280;58897;51.960;5.582;2023-07-29T03:21:06;100403.25;;;17.60;100.00
12987;BME280;58897;51.960;5.582;2023-07-29T03:23:33;100394.69;;;17.56;100.00
12987;BME280;58897;51.960;5.582;2023-07-29T03:26:00;100402.22;;;17.61;100.00
12987;BME280;58897;51.960;5.582;2023-07-29T03:28:30;100399.31;;;17.56;100.00
12987;BME280;58897;51.960;5.582;2023-07-29T03:30:56;100404.75;;;17.62;100.00
12987;BME280;58897;51.960;5.582;2023-07-29T03:33:24;100401.81;;;17.51;100.00
12987;BME280;58897;51.960;5.582;2023-07-29T03:35:54;100397.88;;;17.40;100.00
12987;BME280;58897;51.960;5.582;2023-07-29T03:38:20;100405.91;;;17.35;100.00
12987;BME280;58897;51.960;5.582;2023-07-29T03:40:47;100400.00;;;17.38;100.00
12987;BME280;58897;51.960;5.582;2023-07-29T03:43:14;100407.53;;;17.43;100.00
12987;BME280;58897;51.960;5.582;2023-07-29T03:45:41;100411.53;;;17.40;100.00
12987;BME280;58897;51.960;5.582;2023-07-29T03:48:07;100404.56;;;17.44;100.00
12987;BME280;58897;51.960;5.582;2023-07-29T03:50:35;100397.88;;;17.47;100.00
12987;BME280;58897;51.960;5.582;2023-07-29T03:53:03;100398.47;;;17.49;100.00
12987;BME280;58897;51.960;5.582;2023-07-29T03:55:30;100395.16;;;17.40;100.00
12987;BME280;58897;51.960;5.582;2023-07-29T03:57:58;100395.00;;;17.28;100.00
12987;BME280;58897;51.960;5.582;2023-07-29T04:00:25;100394.38;;;17.26;100.00
12987;BME280;58897;51.960;5.582;2023-07-29T04:02:52;100404.69;;;17.24;100.00
12987;BME280;58897;51.960;5.582;2023-07-29T04:05:19;100403.81;;;17.31;100.00
12987;BME280;58897;51.960;5.582;2023-07-29T04:07:45;100407.03;;;17.14;100.00
12987;BME280;58897;51.960;5.582;2023-07-29T04:10:12;100404.50;;;17.19;100.00
12987;BME280;58897;51.960;5.582;2023-07-29T04:12:39;100390.66;;;17.14;100.00
12987;BME280;58897;51.960;5.582;2023-07-29T04:15:06;100387.88;;;17.21;100.00
12987;BME280;58897;51.960;5.582;2023-07-29T04:17:33;100383.63;;;17.32;100.00
12987;BME280;58897;51.960;5.582;2023-07-29T04:19:59;100367.25;;;17.32;100.00
12987;BME280;58897;51.960;5.582;2023-07-29T04:22:26;100363.91;;;17.36;100.00
12987;BME280;58897;51.960;5.582;2023-07-29T04:24:52;100361.00;;;17.24;100.00
12987;BME280;58897;51.960;5.582;2023-07-29T04:27:20;100362.47;;;17.27;100.00
12987;BME280;58897;51.960;5.582;2023-07-29T04:29:46;100354.72;;;17.24;100.00
12987;BME280;58897;51.960;5.582;2023-07-29T04:32:13;100374.03;;;17.22;100.00
12987;BME280;58897;51.960;5.582;2023-07-29T04:34:39;100369.63;;;17.28;100.00
12987;BME280;58897;51.960;5.582;2023-07-29T04:37:06;100376.16;;;17.20;100.00
12987;BME280;58897;51.960;5.582;2023-07-29T04:39:32;100378.44;;;17.23;100.00
12987;BME280;58897;51.960;5.582;2023-07-29T04:41:59;100390.00;;;17.25;100.00
12987;BME280;58897;51.960;5.582;2023-07-29T04:44:27;100385.81;;;17.23;100.00
12987;BME280;58897;51.960;5.582;2023-07-29T04:46:54;100399.03;;;17.19;100.00
12987;BME280;58897;51.960;5.582;2023-07-29T04:49:20;100406.97;;;17.27;100.00
12987;BME280;58897;51.960;5.582;2023-07-29T04:51:47;100402.78;;;17.25;100.00
12987;BME280;58897;51.960;5.582;2023-07-29T04:54:13;100396.91;;;17.21;100.00
12987;BME280;58897;51.960;5.582;2023-07-29T04:56:40;100387.09;;;17.14;100.00
12987;BME280;58897;51.960;5.582;2023-07-29T04:59:06;100405.09;;;17.21;100.00
12987;BME280;58897;51.960;5.582;2023-07-29T05:01:34;100411.00;;;17.18;100.00
12987;BME280;58897;51.960;5.582;2023-07-29T05:04:01;100408.22;;;17.32;100.00
12987;BME280;58897;51.960;5.582;2023-07-29T05:06:28;100404.50;;;17.19;100.00
12987;BME280;58897;51.960;5.582;2023-07-29T05:08:57;100416.81;;;17.28;100.00
12987;BME280;58897;51.960;5.582;2023-07-29T05:11:24;100417.44;;;17.37;100.00
12987;BME280;58897;51.960;5.582;2023-07-29T05:13:52;100422.22;;;17.42;100.00
12987;BME280;58897;51.960;5.582;2023-07-29T05:16:18;100413.41;;;17.40;100.00
12987;BME280;58897;51.960;5.582;2023-07-29T05:18:45;100410.94;;;17.32;100.00
12987;BME280;58897;51.960;5.582;2023-07-29T05:21:11;100410.75;;;17.33;100.00
12987;BME280;58897;51.960;5.582;2023-07-29T05:23:40;100415.13;;;17.34;100.00
12987;BME280;58897;51.960;5.582;2023-07-29T05:26:07;100411.97;;;17.37;100.00
12987;BME280;58897;51.960;5.582;2023-07-29T05:28:33;100419.13;;;17.38;100.00
12987;BME280;58897;51.960;5.582;2023-07-29T05:31:01;100427.72;;;17.35;100.00
12987;BME280;58897;51.960;5.582;2023-07-29T05:33:28;100427.97;;;17.34;100.00
12987;BME280;58897;51.960;5.582;2023-07-29T05:35:55;100431.50;;;17.41;100.00
12987;BME280;58897;51.960;5.582;2023-07-29T05:38:21;100425.59;;;17.44;100.00
12987;BME280;58897;51.960;5.582;2023-07-29T05:40:51;100420.09;;;17.50;100.00
12987;BME280;58897;51.960;5.582;2023-07-29T05:43:18;100412.28;;;17.60;100.00
12987;BME280;58897;51.960;5.582;2023-07-29T05:45:44;100410.69;;;17.40;100.00
12987;BME280;58897;51.960;5.582;2023-07-29T05:48:11;100418.03;;;17.39;100.00
12987;BME280;58897;51.960;5.582;2023-07-29T05:50:38;100411.69;;;17.52;100.00
12987;BME280;58897;51.960;5.582;2023-07-29T05:53:04;100424.75;;;17.43;100.00
12987;BME280;58897;51.960;5.582;2023-07-29T05:55:31;100428.31;;;17.57;100.00
12987;BME280;58897;51.960;5.582;2023-07-29T05:57:57;100425.69;;;17.68;100.00
12987;BME280;58897;51.960;5.582;2023-07-29T06:00:24;100416.81;;;17.79;100.00
12987;BME280;58897;51.960;5.582;2023-07-29T06:02:50;100416.47;;;17.94;100.00
12987;BME280;58897;51.960;5.582;2023-07-29T06:05:17;100410.53;;;18.04;100.00
12987;BME280;58897;51.960;5.582;2023-07-29T06:07:43;100411.72;;;18.14;100.00
12987;BME280;58897;51.960;5.582;2023-07-29T06:10:15;100413.00;;;18.12;100.00
12987;BME280;58897;51.960;5.582;2023-07-29T06:12:46;100415.06;;;18.16;100.00
12987;BME280;58897;51.960;5.582;2023-07-29T06:15:12;100405.41;;;18.14;100.00
12987;BME280;58897;51.960;5.582;2023-07-29T06:17:40;100405.78;;;18.17;100.00
12987;BME280;58897;51.960;5.582;2023-07-29T06:20:07;100411.81;;;18.26;100.00
12987;BME280;58897;51.960;5.582;2023-07-29T06:22:34;100419.34;;;18.30;100.00
12987;BME280;58897;51.960;5.582;2023-07-29T06:25:00;100406.03;;;18.40;100.00
12987;BME280;58897;51.960;5.582;2023-07-29T06:27:27;100410.41;;;18.48;100.00
12987;BME280;58897;51.960;5.582;2023-07-29T06:29:54;100412.09;;;18.42;100.00
12987;BME280;58897;51.960;5.582;2023-07-29T06:32:20;100408.19;;;18.57;100.00
12987;BME280;58897;51.960;5.582;2023-07-29T06:34:47;100414.22;;;18.65;100.00
12987;BME280;58897;51.960;5.582;2023-07-29T06:37:13;100402.09;;;18.79;100.00
12987;BME280;58897;51.960;5.582;2023-07-29T06:39:40;100405.00;;;18.60;100.00
12987;BME280;58897;51.960;5.582;2023-07-29T06:42:06;100398.78;;;19.25;100.00
12987;BME280;58897;51.960;5.582;2023-07-29T06:44:33;100391.94;;;19.94;100.00
12987;BME280;58897;51.960;5.582;2023-07-29T06:46:59;100395.03;;;19.56;100.00
12987;BME280;58897;51.960;5.582;2023-07-29T06:49:26;100410.66;;;18.83;100.00
12987;BME280;58897;51.960;5.582;2023-07-29T06:51:53;100418.47;;;18.61;100.00
12987;BME280;58897;51.960;5.582;2023-07-29T06:54:24;100418.00;;;18.64;100.00
12987;BME280;58897;51.960;5.582;2023-07-29T06:56:50;100417.13;;;18.70;100.00
12987;BME280;58897;51.960;5.582;2023-07-29T06:59:17;100412.75;;;19.05;100.00
12987;BME280;58897;51.960;5.582;2023-07-29T07:01:43;100410.81;;;19.42;100.00
12987;BME280;58897;51.960;5.582;2023-07-29T07:04:10;100409.09;;;19.89;100.00
12987;BME280;58897;51.960;5.582;2023-07-29T07:06:36;100409.03;;;19.30;100.00
12987;BME280;58897;51.960;5.582;2023-07-29T07:09:03;100412.78;;;19.35;100.00
12987;BME280;58897;51.960;5.582;2023-07-29T07:11:30;100425.72;;;18.92;100.00
12987;BME280;58897;51.960;5.582;2023-07-29T07:13:56;100430.13;;;18.93;100.00
12987;BME280;58897;51.960;5.582;2023-07-29T07:16:23;100432.59;;;18.58;100.00
12987;BME280;58897;51.960;5.582;2023-07-29T07:18:50;100428.50;;;18.67;100.00
12987;BME280;58897;51.960;5.582;2023-07-29T07:21:16;100428.53;;;19.03;100.00
12987;BME280;58897;51.960;5.582;2023-07-29T07:23:43;100428.53;;;19.22;100.00
12987;BME280;58897;51.960;5.582;2023-07-29T07:26:10;100427.16;;;19.31;100.00
12987;BME280;58897;51.960;5.582;2023-07-29T07:28:36;100429.66;;;18.96;100.00
12987;BME280;58897;51.960;5.582;2023-07-29T07:31:02;100446.63;;;19.04;100.00
12987;BME280;58897;51.960;5.582;2023-07-29T07:33:29;100444.16;;;19.03;100.00
12987;BME280;58897;51.960;5.582;2023-07-29T07:35:55;100432.50;;;19.07;100.00
12987;BME280;58897;51.960;5.582;2023-07-29T07:38:22;100427.03;;;19.44;100.00
12987;BME280;58897;51.960;5.582;2023-07-29T07:40:53;100422.88;;;19.53;100.00
12987;BME280;58897;51.960;5.582;2023-07-29T07:43:21;100416.41;;;20.07;100.00
12987;BME280;58897;51.960;5.582;2023-07-29T07:45:48;100411.56;;;20.20;100.00
12987;BME280;58897;51.960;5.582;2023-07-29T07:48:15;100404.53;;;20.94;100.00
12987;BME280;58897;51.960;5.582;2023-07-29T07:50:43;100397.72;;;21.08;100.00
12987;BME280;58897;51.960;5.582;2023-07-29T07:53:09;100398.22;;;20.24;100.00
12987;BME280;58897;51.960;5.582;2023-07-29T07:55:36;100409.09;;;19.89;100.00
12987;BME280;58897;51.960;5.582;2023-07-29T07:58:02;100407.09;;;19.96;100.00
12987;BME280;58897;51.960;5.582;2023-07-29T08:00:29;100413.63;;;20.25;100.00
12987;BME280;58897;51.960;5.582;2023-07-29T08:02:55;100417.66;;;19.81;100.00
12987;BME280;58897;51.960;5.582;2023-07-29T08:05:22;100424.06;;;19.75;100.00
12987;BME280;58897;51.960;5.582;2023-07-29T08:07:48;100433.66;;;19.66;100.00
12987;BME280;58897;51.960;5.582;2023-07-29T08:10:15;100437.28;;;19.48;100.00
12987;BME280;58897;51.960;5.582;2023-07-29T08:12:42;100443.47;;;19.44;100.00
12987;BME280;58897;51.960;5.582;2023-07-29T08:15:08;100440.72;;;19.73;100.00
12987;BME280;58897;51.960;5.582;2023-07-29T08:17:35;100433.53;;;20.02;100.00
12987;BME280;58897;51.960;5.582;2023-07-29T08:20:02;100420.25;;;20.17;100.00
12987;BME280;58897;51.960;5.582;2023-07-29T08:22:28;100411.41;;;21.31;100.00
12987;BME280;58897;51.960;5.582;2023-07-29T08:24:55;100397.94;;;22.86;100.00
12987;BME280;58897;51.960;5.582;2023-07-29T08:27:21;100412.28;;;22.22;100.00
12987;BME280;58897;51.960;5.582;2023-07-29T08:29:48;100412.09;;;21.38;100.00
12987;BME280;58897;51.960;5.582;2023-07-29T08:32:14;100415.41;;;20.89;100.00
12987;BME280;58897;51.960;5.582;2023-07-29T08:34:41;100420.88;;;20.31;100.00
12987;BME280;58897;51.960;5.582;2023-07-29T08:37:07;100422.22;;;20.52;100.00
12987;BME280;58897;51.960;5.582;2023-07-29T08:39:34;100426.28;;;20.72;100.00
12987;BME280;58897;51.960;5.582;2023-07-29T08:42:08;100413.75;;;20.88;100.00
12987;BME280;58897;51.960;5.582;2023-07-29T08:44:42;100416.84;;;20.80;100.00
12987;BME280;58897;51.960;5.582;2023-07-29T08:47:09;100416.69;;;20.28;100.00
12987;BME280;58897;51.960;5.582;2023-07-29T08:49:36;100419.75;;;20.09;100.00
12987;BME280;58897;51.960;5.582;2023-07-29T08:52:04;100427.13;;;20.08;100.00
12987;BME280;58897;51.960;5.582;2023-07-29T08:54:31;100432.72;;;20.02;100.00
12987;BME280;58897;51.960;5.582;2023-07-29T08:56:58;100428.19;;;19.96;100.00
12987;BME280;58897;51.960;5.582;2023-07-29T08:59:26;100432.34;;;19.98;100.00
12987;BME280;58897;51.960;5.582;2023-07-29T09:01:54;100435.53;;;19.84;100.00
12987;BME280;58897;51.960;5.582;2023-07-29T09:04:23;100428.69;;;20.04;100.00
12987;BME280;58897;51.960;5.582;2023-07-29T09:06:51;100435.03;;;20.16;100.00
12987;BME280;58897;51.960;5.582;2023-07-29T09:09:17;100433.06;;;20.58;100.00
12987;BME280;58897;51.960;5.582;2023-07-29T09:11:44;100430.47;;;20.75;100.00
12987;BME280;58897;51.960;5.582;2023-07-29T09:14:11;100414.81;;;21.10;100.00
12987;BME280;58897;51.960;5.582;2023-07-29T09:16:39;100417.31;;;22.08;100.00
12987;BME280;58897;51.960;5.582;2023-07-29T09:19:06;100409.88;;;22.75;100.00
12987;BME280;58897;51.960;5.582;2023-07-29T09:21:33;100408.19;;;23.34;100.00
12987;BME280;58897;51.960;5.582;2023-07-29T09:24:03;100411.09;;;23.44;100.00
12987;BME280;58897;51.960;5.582;2023-07-29T09:26:31;100408.44;;;23.76;100.00
12987;BME280;58897;51.960;5.582;2023-07-29T09:28:58;100393.31;;;25.21;100.00
12987;BME280;58897;51.960;5.582;2023-07-29T09:31:26;100388.53;;;25.06;100.00
12987;BME280;58897;51.960;5.582;2023-07-29T09:36:25;100392.81;;;25.39;100.00
12987;BME280;58897;51.960;5.582;2023-07-29T09:38:56;100392.34;;;25.52;100.00
12987;BME280;58897;51.960;5.582;2023-07-29T09:41:25;100395.25;;;26.17;100.00
12987;BME280;58897;51.960;5.582;2023-07-29T09:44:00;100402.53;;;23.67;100.00
12987;BME280;58897;51.960;5.582;2023-07-29T09:46:35;100398.09;;;23.61;100.00
12987;BME280;58897;51.960;5.582;2023-07-29T09:49:06;100391.84;;;24.24;100.00
12987;BME280;58897;51.960;5.582;2023-07-29T09:51:40;100395.63;;;24.87;100.00
12987;BME280;58897;51.960;5.582;2023-07-29T09:54:07;100395.75;;;25.17;100.00
12987;BME280;58897;51.960;5.582;2023-07-29T09:56:39;100404.72;;;25.44;100.00
12987;BME280;58897;51.960;5.582;2023-07-29T09:59:08;100389.94;;;25.13;100.00
12987;BME280;58897;51.960;5.582;2023-07-29T10:01:34;100384.25;;;24.46;100.00
12987;BME280;58897;51.960;5.582;2023-07-29T10:04:03;100382.09;;;24.53;100.00
12987;BME280;58897;51.960;5.582;2023-07-29T10:06:33;100386.63;;;25.89;100.00
12987;BME280;58897;51.960;5.582;2023-07-29T10:09:02;100382.13;;;25.52;100.00
12987;BME280;58897;51.960;5.582;2023-07-29T10:11:29;100385.50;;;25.95;100.00
12987;BME280;58897;51.960;5.582;2023-07-29T10:13:57;100378.34;;;26.09;100.00
12987;BME280;58897;51.960;5.582;2023-07-29T10:16:36;100388.00;;;26.06;100.00
12987;BME280;58897;51.960;5.582;2023-07-29T10:19:04;100392.19;;;25.27;100.00
12987;BME280;58897;51.960;5.582;2023-07-29T10:21:31;100399.97;;;24.09;100.00
12987;BME280;58897;51.960;5.582;2023-07-29T10:24:01;100404.72;;;23.65;100.00
12987;BME280;58897;51.960;5.582;2023-07-29T10:26:31;100396.63;;;22.72;100.00
12987;BME280;58897;51.960;5.582;2023-07-29T10:28:59;100401.44;;;22.82;100.00
12987;BME280;58897;51.960;5.582;2023-07-29T10:31:32;100393.78;;;22.50;100.00
12987;BME280;58897;51.960;5.582;2023-07-29T10:33:59;100400.97;;;22.51;100.00
12987;BME280;58897;51.960;5.582;2023-07-29T10:36:28;100399.13;;;22.57;100.00
12987;BME280;58897;51.960;5.582;2023-07-29T10:38:57;100404.22;;;22.48;100.00
12987;BME280;58897;51.960;5.582;2023-07-29T10:47:13;100399.25;;;21.84;100.00
12987;BME280;58897;51.960;5.582;2023-07-29T10:49:40;100403.78;;;21.90;100.00
12987;BME280;58897;51.960;5.582;2023-07-29T10:52:13;100406.56;;;21.78;100.00
12987;BME280;58897;51.960;5.582;2023-07-29T10:54:47;100410.78;;;21.97;100.00
12987;BME280;58897;51.960;5.582;2023-07-29T10:57:15;100414.31;;;21.81;100.00
12987;BME280;58897;51.960;5.582;2023-07-29T10:59:57;100415.56;;;21.74;100.00
12987;BME280;58897;51.960;5.582;2023-07-29T11:02:39;100417.28;;;21.91;100.00
12987;BME280;58897;51.960;5.582;2023-07-29T11:05:17;100414.97;;;22.00;100.00
12987;BME280;58897;51.960;5.582;2023-07-29T11:07:45;100417.03;;;21.93;100.00
12987;BME280;58897;51.960;5.582;2023-07-29T11:10:39;100413.97;;;21.49;100.00
12987;BME280;58897;51.960;5.582;2023-07-29T11:13:28;100415.00;;;21.32;100.00
12987;BME280;58897;51.960;5.582;2023-07-29T11:15:56;100423.63;;;21.52;100.00
12987;BME280;58897;51.960;5.582;2023-07-29T11:18:29;100429.47;;;21.27;100.00
12987;BME280;58897;51.960;5.582;2023-07-29T11:21:14;100437.84;;;20.86;100.00
12987;BME280;58897;51.960;5.582;2023-07-29T11:23:41;100439.06;;;20.67;100.00
12987;BME280;58897;51.960;5.582;2023-07-29T11:26:13;100449.28;;;20.37;100.00
12987;BME280;58897;51.960;5.582;2023-07-29T11:28:40;100454.63;;;19.90;100.00
12987;BME280;58897;51.960;5.582;2023-07-29T11:31:07;100474.41;;;19.92;100.00
12987;BME280;58897;51.960;5.582;2023-07-29T11:33:33;100473.84;;;20.02;100.00
12987;BME280;58897;51.960;5.582;2023-07-29T11:36:03;100473.59;;;19.92;100.00
12987;BME280;58897;51.960;5.582;2023-07-29T11:38:30;100473.78;;;19.79;100.00
12987;BME280;58897;51.960;5.582;2023-07-29T11:41:03;100466.19;;;19.92;100.00
12987;BME280;58897;51.960;5.582;2023-07-29T11:43:30;100461.31;;;19.64;100.00
12987;BME280;58897;51.960;5.582;2023-07-29T11:45:56;100462.19;;;19.77;100.00
12987;BME280;58897;51.960;5.582;2023-07-29T11:48:28;100475.53;;;19.73;100.00
12987;BME280;58897;51.960;5.582;2023-07-29T11:50:55;100486.81;;;19.65;100.00
12987;BME280;58897;51.960;5.582;2023-07-29T11:53:21;100495.13;;;19.40;100.00
12987;BME280;58897;51.960;5.582;2023-07-29T11:55:51;100505.22;;;19.40;100.00
12987;BME280;58897;51.960;5.582;2023-07-29T11:58:20;100501.34;;;19.29;100.00
12987;BME280;58897;51.960;5.582;2023-07-29T12:00:48;100512.47;;;19.52;100.00
12987;BME280;58897;51.960;5.582;2023-07-29T12:03:16;100504.78;;;19.43;100.00
12987;BME280;58897;51.960;5.582;2023-07-29T12:05:44;100502.78;;;19.32;100.00
12987;BME280;58897;51.960;5.582;2023-07-29T12:08:11;100500.47;;;19.83;100.00
12987;BME280;58897;51.960;5.582;2023-07-29T12:10:38;100497.88;;;19.88;100.00
12987;BME280;58897;51.960;5.582;2023-07-29T12:13:07;100486.44;;;19.91;100.00
12987;BME280;58897;51.960;5.582;2023-07-29T12:15:34;100484.19;;;20.00;100.00
12987;BME280;58897;51.960;5.582;2023-07-29T12:18:01;100476.28;;;20.21;100.00
12987;BME280;58897;51.960;5.582;2023-07-29T12:20:29;100483.38;;;19.99;100.00
12987;BME280;58897;51.960;5.582;2023-07-29T12:22:57;100486.56;;;20.26;100.00
12987;BME280;58897;51.960;5.582;2023-07-29T12:25:26;100477.13;;;20.22;100.00
12987;BME280;58897;51.960;5.582;2023-07-29T12:27:52;100468.63;;;20.76;100.00
12987;BME280;58897;51.960;5.582;2023-07-29T12:30:23;100470.31;;;20.66;100.00
12987;BME280;58897;51.960;5.582;2023-07-29T12:32:51;100460.50;;;21.28;100.00
12987;BME280;58897;51.960;5.582;2023-07-29T12:35:18;100444.03;;;21.96;100.00
12987;BME280;58897;51.960;5.582;2023-07-29T12:37:44;100439.81;;;22.05;100.00
12987;BME280;58897;51.960;5.582;2023-07-29T12:40:21;100444.78;;;21.80;100.00
12987;BME280;58897;51.960;5.582;2023-07-29T12:42:50;100455.38;;;21.99;100.00
12987;BME280;58897;51.960;5.582;2023-07-29T12:45:18;100451.22;;;21.57;100.00
12987;BME280;58897;51.960;5.582;2023-07-29T12:47:44;100447.34;;;21.98;100.00
12987;BME280;58897;51.960;5.582;2023-07-29T12:50:11;100450.59;;;22.23;100.00
12987;BME280;58897;51.960;5.582;2023-07-29T12:52:38;100451.25;;;22.30;100.00
12987;BME280;58897;51.960;5.582;2023-07-29T12:55:05;100460.56;;;21.84;100.00
12987;BME280;58897;51.960;5.582;2023-07-29T12:57:32;100455.19;;;21.49;100.00
12987;BME280;58897;51.960;5.582;2023-07-29T12:59:58;100461.44;;;21.45;100.00
12987;BME280;58897;51.960;5.582;2023-07-29T13:02:25;100458.31;;;21.41;100.00